Time;durP1;ratioP1;P1;durP2;ratioP2;P2;SDS_P1;SDS_P2;PMS_P1;PMS_P2;Temp;Humidity;BMP_temperature;BMP_pressure;BME280_temperature;BME280_humidity;BME280_pressure;Samples;Min_cycle;Max_cycle;Signal;HPM_P1;HPM_P2
2020/12/25 00:02:04;;;;;;;0.30;0.20;;;;;;;5.65;100.00;100193.91;4983914;28;20473;-51
2020/12/25 00:04:35;;;;;;;0.30;0.20;;;;;;;5.63;100.00;100193.06;4993592;28;20500;-50
2020/12/25 00:07:05;;;;;;;0.30;0.20;;;;;;;5.58;100.00;100194.84;4983935;28;20825;-50
2020/12/25 00:09:31;;;;;;;0.30;0.10;;;;;;;5.71;100.00;100203.50;4987744;28;20467;-52
2020/12/25 00:11:58;;;;;;;0.30;0.20;;;;;;;5.61;100.00;100197.44;4984825;28;20497;-50
2020/12/25 00:14:24;;;;;;;0.30;0.20;;;;;;;5.65;100.00;100200.06;4981519;28;20453;-50
2020/12/25 00:16:50;;;;;;;1.43;1.33;;;;;;;5.75;100.00;100197.28;4983200;28;20465;-50
2020/12/25 00:19:17;;;;;;;0.30;0.20;;;;;;;5.63;100.00;100195.69;4987546;28;20549;-50
2020/12/25 00:21:43;;;;;;;0.30;0.20;;;;;;;5.63;100.00;100209.75;4985208;28;20504;-50
2020/12/25 00:24:09;;;;;;;0.30;0.20;;;;;;;5.49;100.00;100206.38;4980464;28;20449;-50
2020/12/25 00:26:35;;;;;;;0.30;0.30;;;;;;;5.45;100.00;100204.63;4982535;28;20976;-49
2020/12/25 00:29:03;;;;;;;0.30;0.23;;;;;;;5.41;100.00;100205.56;4987317;28;20474;-50
2020/12/25 00:31:34;;;;;;;0.30;0.20;;;;;;;5.36;100.00;100210.00;4985403;28;20489;-50
2020/12/25 00:34:04;;;;;;;0.30;0.20;;;;;;;5.39;100.00;100207.31;4980397;28;20441;-50
2020/12/25 00:36:35;;;;;;;0.30;0.20;;;;;;;5.30;100.00;100204.75;4981473;28;20462;-51
2020/12/25 00:39:06;;;;;;;0.30;0.20;;;;;;;5.34;100.00;100201.22;4980304;28;20529;-50
2020/12/25 00:41:32;;;;;;;0.30;0.20;;;;;;;5.50;100.00;100207.25;4980562;28;20466;-51
2020/12/25 00:43:58;;;;;;;0.30;0.10;;;;;;;5.41;100.00;100209.94;4988106;28;20454;-50
2020/12/25 00:46:24;;;;;;;0.20;0.10;;;;;;;5.50;100.00;100209.88;4992718;28;20457;-50
2020/12/25 00:48:51;;;;;;;0.30;0.10;;;;;;;5.43;100.00;100203.78;4981167;28;20477;-52
2020/12/25 00:51:20;;;;;;;0.30;0.20;;;;;;;5.43;100.00;100210.81;4980240;28;20501;-51
2020/12/25 00:53:47;;;;;;;0.30;0.20;;;;;;;5.42;100.00;100207.28;4985930;28;20481;-51
2020/12/25 00:56:14;;;;;;;0.30;0.20;;;;;;;5.42;100.00;100215.19;4987959;28;20445;-51
2020/12/25 00:58:41;;;;;;;0.30;0.20;;;;;;;5.32;100.00;100216.16;4993058;28;20481;-50
2020/12/25 01:01:13;;;;;;;0.30;0.20;;;;;;;5.42;100.00;100216.97;4980239;28;20454;-50
2020/12/25 01:03:40;;;;;;;0.30;0.20;;;;;;;5.33;100.00;100226.69;4989832;28;20512;-50
2020/12/25 01:06:15;;;;;;;0.30;0.20;;;;;;;5.32;100.00;100224.06;4989862;28;20455;-50
2020/12/25 01:08:42;;;;;;;0.30;0.20;;;;;;;5.32;100.00;100221.44;4983981;28;20476;-50
2020/12/25 01:11:09;;;;;;;0.30;0.20;;;;;;;5.45;100.00;100233.63;4979914;28;20492;-50
2020/12/25 01:13:38;;;;;;;0.20;0.10;;;;;;;5.29;100.00;100237.28;4982522;28;20803;-50
2020/12/25 01:16:05;;;;;;;0.30;0.10;;;;;;;5.51;100.00;100235.34;4987340;28;20455;-50
2020/12/25 01:18:32;;;;;;;0.20;0.20;;;;;;;5.43;100.00;100243.31;4984533;28;21057;-50
2020/12/25 01:20:58;;;;;;;0.20;0.10;;;;;;;5.34;100.00;100246.00;4979998;28;20450;-50
2020/12/25 01:23:25;;;;;;;0.30;0.20;;;;;;;5.27;100.00;100253.09;4982078;28;20469;-50
2020/12/25 01:25:51;;;;;;;0.30;0.20;;;;;;;5.33;100.00;100257.44;4986320;28;20458;-50
2020/12/25 01:28:18;;;;;;;0.30;0.20;;;;;;;5.32;100.00;100258.31;4984576;28;20477;-50
2020/12/25 01:30:45;;;;;;;0.30;0.20;;;;;;;5.33;100.00;100257.44;4979596;28;21036;-51
2020/12/25 01:33:11;;;;;;;0.30;0.20;;;;;;;5.31;100.00;100270.63;4981172;28;20501;-51
2020/12/25 01:35:38;;;;;;;0.30;0.10;;;;;;;5.35;100.00;100277.66;4986315;28;20454;-50
2020/12/25 01:38:05;;;;;;;0.30;0.20;;;;;;;5.41;100.00;100281.97;4985028;28;20457;-51
2020/12/25 01:40:32;;;;;;;0.30;0.10;;;;;;;5.33;100.00;100284.66;4980006;28;20461;-52
2020/12/25 01:42:58;;;;;;;0.23;0.10;;;;;;;5.38;100.00;100282.00;4980921;28;20458;-51
2020/12/25 01:45:24;;;;;;;0.30;0.20;;;;;;;5.25;100.00;100283.88;4988495;28;20449;-50
2020/12/25 01:47:53;;;;;;;1.40;1.37;;;;;;;5.25;100.00;100285.63;4989279;28;20545;-50
2020/12/25 01:50:21;;;;;;;0.30;0.20;;;;;;;5.17;100.00;100292.69;4986505;28;20877;-51
2020/12/25 01:52:48;;;;;;;0.20;0.10;;;;;;;5.06;100.00;100298.03;4986226;28;20465;-54
2020/12/25 01:55:15;;;;;;;0.20;0.20;;;;;;;4.76;100.00;100286.78;4979760;28;20508;-51
2020/12/25 01:57:42;;;;;;;0.30;0.10;;;;;;;4.86;100.00;100295.53;5005438;28;20511;-51
2020/12/25 02:00:08;;;;;;;0.30;0.20;;;;;;;4.87;100.00;100305.16;4985835;28;20493;-50
2020/12/25 02:02:34;;;;;;;0.20;0.10;;;;;;;4.67;100.00;100302.66;4986426;28;20480;-51
2020/12/25 02:05:01;;;;;;;0.30;0.10;;;;;;;4.81;100.00;100299.06;4992295;28;20457;-51
2020/12/25 02:07:27;;;;;;;0.27;0.10;;;;;;;4.83;100.00;100298.19;4983197;28;20454;-51
2020/12/25 02:09:53;;;;;;;0.30;0.20;;;;;;;4.65;100.00;100306.16;4989203;28;20525;-50
2020/12/25 02:12:19;;;;;;;0.20;0.10;;;;;;;4.60;100.00;100306.16;4989723;28;20569;-50
2020/12/25 02:14:46;;;;;;;0.20;0.10;;;;;;;4.77;100.00;100308.72;4984473;28;20476;-51
2020/12/25 02:17:12;;;;;;;0.20;0.10;;;;;;;4.83;100.00;100318.38;4983210;28;20627;-50
2020/12/25 02:19:38;;;;;;;0.30;0.20;;;;;;;4.75;100.00;100310.50;4988404;28;20509;-52
2020/12/25 02:22:05;;;;;;;0.20;0.10;;;;;;;4.80;100.00;100314.00;4977137;28;20450;-51
2020/12/25 02:24:31;;;;;;;0.20;0.10;;;;;;;4.79;100.00;100311.34;4988952;28;20940;-52
2020/12/25 02:26:58;;;;;;;0.20;0.20;;;;;;;4.74;100.00;100306.09;4988246;28;20484;-52
2020/12/25 02:29:24;;;;;;;0.20;0.20;;;;;;;4.72;100.00;100305.25;4983044;28;20473;-51
2020/12/25 02:31:50;;;;;;;0.20;0.20;;;;;;;4.72;100.00;100316.66;4982809;28;20486;-52
2020/12/25 02:34:16;;;;;;;0.30;0.20;;;;;;;4.76;100.00;100317.50;4989089;28;20454;-52
2020/12/25 02:36:42;;;;;;;0.20;0.20;;;;;;;4.82;100.00;100311.34;4989521;28;20508;-51
2020/12/25 02:39:08;;;;;;;0.30;0.10;;;;;;;4.83;100.00;100315.75;4982958;28;20512;-53
2020/12/25 02:41:35;;;;;;;0.20;0.10;;;;;;;4.76;100.00;100321.00;4982322;28;20505;-51
2020/12/25 02:44:01;;;;;;;0.20;0.10;;;;;;;4.70;100.00;100328.94;4991008;28;20458;-51
2020/12/25 02:46:28;;;;;;;0.23;0.20;;;;;;;4.57;100.00;100326.38;4995252;28;20461;-53
2020/12/25 02:48:57;;;;;;;0.30;0.20;;;;;;;4.66;100.00;100326.31;4982828;28;20476;-51
2020/12/25 02:51:23;;;;;;;0.30;0.20;;;;;;;4.54;100.00;100323.75;4982512;28;20843;-51
2020/12/25 02:53:49;;;;;;;0.27;0.10;;;;;;;4.54;100.00;100321.13;4988068;28;20583;-50
2020/12/25 02:56:16;;;;;;;0.20;0.10;;;;;;;4.54;100.00;100324.63;4990311;28;20450;-50
2020/12/25 02:58:43;;;;;;;0.20;0.17;;;;;;;4.44;100.00;100330.81;4995121;28;20480;-51
2020/12/25 03:01:11;;;;;;;0.20;0.20;;;;;;;4.48;100.00;100329.91;4981738;28;20451;-50
2020/12/25 03:03:38;;;;;;;0.20;0.10;;;;;;;4.59;100.00;100338.63;4991637;28;20500;-50
2020/12/25 03:06:05;;;;;;;0.30;0.20;;;;;;;4.43;100.00;100335.19;4981835;28;20956;-53
2020/12/25 03:08:32;;;;;;;0.20;0.20;;;;;;;4.14;100.00;100339.66;4986430;28;20474;-51
2020/12/25 03:10:59;;;;;;;0.20;0.13;;;;;;;4.08;100.00;100340.50;4988597;28;20552;-50
2020/12/25 03:13:26;;;;;;;0.30;0.20;;;;;;;4.09;100.00;100341.38;4984242;28;20828;-52
2020/12/25 03:15:52;;;;;;;0.20;0.20;;;;;;;3.97;100.00;100339.66;4991233;28;20453;-52
2020/12/25 03:18:19;;;;;;;0.20;0.20;;;;;;;3.96;100.00;100344.91;4984216;28;20474;-54
2020/12/25 03:20:46;;;;;;;0.20;0.10;;;;;;;4.18;100.00;100344.03;4992273;28;20453;-52
2020/12/25 03:23:12;;;;;;;0.20;0.20;;;;;;;4.24;100.00;100344.00;4984437;28;20527;-51
2020/12/25 03:25:39;;;;;;;0.30;0.20;;;;;;;4.39;100.00;100351.88;4981451;28;20485;-51
2020/12/25 03:28:05;;;;;;;0.20;0.17;;;;;;;4.31;100.00;100348.38;4985582;28;20473;-51
2020/12/25 03:30:31;;;;;;;0.20;0.10;;;;;;;4.27;100.00;100353.66;4987800;28;20501;-51
2020/12/25 03:32:58;;;;;;;0.20;0.10;;;;;;;4.31;100.00;100351.00;4984623;28;20457;-51
2020/12/25 03:35:24;;;;;;;0.30;0.20;;;;;;;4.19;100.00;100348.41;4981030;28;20457;-51
2020/12/25 03:37:50;;;;;;;0.30;0.10;;;;;;;4.13;100.00;100343.16;4985367;28;20829;-51
2020/12/25 03:40:16;;;;;;;0.27;0.10;;;;;;;4.15;100.00;100352.78;4988278;28;20469;-52
2020/12/25 03:42:43;;;;;;;0.30;0.20;;;;;;;4.25;100.00;100350.13;4983916;28;20507;-52
2020/12/25 03:45:09;;;;;;;0.30;0.20;;;;;;;4.21;100.00;100362.41;4989451;28;20540;-51
2020/12/25 03:47:35;;;;;;;0.20;0.20;;;;;;;4.28;100.00;100366.81;4984835;28;20857;-49
2020/12/25 03:50:04;;;;;;;0.30;0.20;;;;;;;4.31;100.00;100369.44;4987504;28;20520;-50
2020/12/25 03:52:30;;;;;;;0.20;0.10;;;;;;;4.35;100.00;100379.06;4983944;28;21013;-51
2020/12/25 03:54:56;;;;;;;0.30;0.20;;;;;;;4.43;100.00;100377.28;4980914;28;20500;-51
2020/12/25 03:57:22;;;;;;;0.30;0.10;;;;;;;4.31;100.00;100381.72;4992973;28;20450;-52
2020/12/25 03:59:49;;;;;;;0.30;0.20;;;;;;;4.26;100.00;100387.00;4989284;28;21059;-52
2020/12/25 04:02:15;;;;;;;0.30;0.20;;;;;;;4.35;100.00;100389.56;4985614;28;20820;-51
2020/12/25 04:04:41;;;;;;;0.20;0.13;;;;;;;4.26;100.00;100394.00;4985145;28;20463;-51
2020/12/25 04:07:08;;;;;;;0.20;0.20;;;;;;;4.29;100.00;100400.13;4985783;28;20886;-52
2020/12/25 04:09:34;;;;;;;0.30;0.10;;;;;;;4.33;100.00;100403.63;4981091;28;20480;-52
2020/12/25 04:12:00;;;;;;;0.30;0.20;;;;;;;4.36;100.00;100409.75;4982228;28;20501;-52
2020/12/25 04:14:26;;;;;;;0.20;0.13;;;;;;;4.37;100.00;100408.88;4991917;28;21124;-51
2020/12/25 04:16:52;;;;;;;0.30;0.20;;;;;;;4.60;100.00;100413.22;4982581;28;20513;-51
2020/12/25 04:19:18;;;;;;;0.20;0.20;;;;;;;4.57;100.00;100414.13;4987213;28;20505;-52
2020/12/25 04:21:45;;;;;;;0.20;0.20;;;;;;;4.62;100.00;100417.59;4985973;28;20452;-52
2020/12/25 04:24:11;;;;;;;0.20;0.20;;;;;;;4.72;100.00;100414.06;4980539;28;20511;-52
2020/12/25 04:26:37;;;;;;;0.20;0.10;;;;;;;4.75;100.00;100421.94;4981439;28;20458;-52
2020/12/25 04:29:03;;;;;;;0.20;0.20;;;;;;;4.79;100.00;100427.19;4987125;28;20846;-52
2020/12/25 04:31:29;;;;;;;0.20;0.20;;;;;;;4.79;100.00;100425.44;4985952;28;20497;-52
2020/12/25 04:33:55;;;;;;;0.30;0.20;;;;;;;4.66;100.00;100429.00;4980265;28;20882;-51
2020/12/25 04:36:29;;;;;;;0.20;0.10;;;;;;;4.59;100.00;100435.16;4980886;28;20474;-52
2020/12/25 04:38:55;;;;;;;0.20;0.17;;;;;;;4.65;100.00;100424.59;4986499;28;20525;-52
2020/12/25 04:41:22;;;;;;;0.30;0.20;;;;;;;4.59;100.00;100435.16;4986972;28;20450;-51
2020/12/25 04:43:51;;;;;;;0.40;0.40;;;;;;;4.54;100.00;100435.19;4987415;28;20458;-51
2020/12/25 04:46:17;;;;;;;0.20;0.20;;;;;;;4.55;100.00;100433.44;4993174;28;20461;-52
2020/12/25 04:48:44;;;;;;;0.20;0.10;;;;;;;4.69;100.00;100440.41;4987283;28;20497;-52
2020/12/25 04:51:10;;;;;;;0.30;0.20;;;;;;;4.58;100.00;100451.84;4986727;28;20488;-55
2020/12/25 04:53:37;;;;;;;0.30;0.20;;;;;;;4.55;100.00;100450.09;4980061;28;20465;-51
2020/12/25 04:56:04;;;;;;;0.20;0.10;;;;;;;4.57;100.00;100460.63;4980473;28;20474;-50
2020/12/25 04:58:30;;;;;;;0.30;0.20;;;;;;;4.61;100.00;100460.59;4992972;28;20469;-52
2020/12/25 05:01:02;;;;;;;0.20;0.20;;;;;;;4.57;100.00;100456.22;4979905;28;20462;-52
2020/12/25 05:03:33;;;;;;;0.30;0.20;;;;;;;4.70;100.00;100464.97;4988578;28;20519;-51
2020/12/25 05:06:07;;;;;;;0.20;0.20;;;;;;;4.61;100.00;100460.59;4990847;28;20869;-51
2020/12/25 05:08:51;;;;;;;0.20;0.20;;;;;;;4.69;100.00;100464.09;4973723;28;20478;-51
2020/12/25 05:11:19;;;;;;;0.30;0.10;;;;;;;4.52;100.00;100463.22;4986576;28;20494;-51
2020/12/25 05:13:55;;;;;;;0.20;0.10;;;;;;;4.62;100.00;100466.75;4985931;28;20831;-51
2020/12/25 05:16:22;;;;;;;0.30;0.10;;;;;;;4.61;100.00;100467.63;4985926;28;20533;-51
2020/12/25 05:18:50;;;;;;;0.20;0.20;;;;;;;4.53;100.00;100472.03;4986025;28;20466;-52
2020/12/25 05:21:21;;;;;;;0.20;0.10;;;;;;;4.58;100.00;100470.25;4980976;28;20508;-52
2020/12/25 05:23:49;;;;;;;0.20;0.10;;;;;;;4.55;100.00;100475.53;4979662;28;20450;-50
2020/12/25 05:26:17;;;;;;;0.30;0.20;;;;;;;4.59;100.00;100485.19;4984433;28;20465;-52
2020/12/25 05:28:47;;;;;;;0.20;0.10;;;;;;;4.43;100.00;100482.56;4986511;28;20473;-50
2020/12/25 05:31:14;;;;;;;0.20;0.20;;;;;;;4.49;100.00;100489.56;4981843;28;20932;-50
2020/12/25 05:33:41;;;;;;;0.20;0.20;;;;;;;4.44;100.00;100497.47;4979907;28;20504;-50
2020/12/25 05:36:11;;;;;;;0.20;0.10;;;;;;;4.39;100.00;100496.59;4983647;28;20454;-50
2020/12/25 05:38:39;;;;;;;0.20;0.10;;;;;;;4.40;100.00;100490.47;4987036;28;20470;-50
2020/12/25 05:41:08;;;;;;;0.20;0.10;;;;;;;4.50;100.00;100501.84;4977272;28;20590;-51
2020/12/25 05:43:34;;;;;;;0.20;0.10;;;;;;;4.53;100.00;100504.50;4988851;28;20450;-52
2020/12/25 05:46:01;;;;;;;0.20;0.10;;;;;;;4.44;100.00;100505.38;4995006;28;20450;-51
2020/12/25 05:48:27;;;;;;;5.60;5.10;;;;;;;4.41;100.00;100512.41;4983316;28;20480;-50
2020/12/25 05:50:53;;;;;;;0.20;0.20;;;;;;;4.45;100.00;100520.28;4986073;28;20514;-50
2020/12/25 05:53:20;;;;;;;0.20;0.20;;;;;;;4.45;100.00;100522.03;4989925;28;20469;-50
2020/12/25 05:55:46;;;;;;;0.20;0.10;;;;;;;4.54;100.00;100521.16;4987514;28;20460;-50
2020/12/25 05:58:14;;;;;;;0.20;0.10;;;;;;;4.57;100.00;100531.69;4996355;28;20449;-50
2020/12/25 06:00:42;;;;;;;0.20;0.10;;;;;;;4.55;100.00;100530.81;4984892;28;20935;-49
2020/12/25 06:03:12;;;;;;;0.20;0.10;;;;;;;4.56;100.00;100535.19;4991332;28;20469;-50
2020/12/25 06:05:41;;;;;;;0.20;0.10;;;;;;;4.55;100.00;100539.59;4996382;28;20504;-50
2020/12/25 06:08:17;;;;;;;0.20;0.10;;;;;;;4.52;100.00;100543.94;4983212;28;20449;-50
2020/12/25 06:10:45;;;;;;;0.20;0.10;;;;;;;4.54;100.00;100545.72;4982945;28;20824;-51
2020/12/25 06:13:16;;;;;;;0.27;0.20;;;;;;;4.43;100.00;100551.00;4987762;28;20951;-50
2020/12/25 06:15:49;;;;;;;0.30;0.10;;;;;;;4.56;100.00;100548.38;4989867;28;20485;-50
2020/12/25 06:18:24;;;;;;;0.20;0.10;;;;;;;4.48;100.00;100548.34;4986425;28;20470;-50
2020/12/25 06:20:56;;;;;;;0.30;0.20;;;;;;;4.37;100.00;100545.69;4982861;28;20452;-50
2020/12/25 06:23:24;;;;;;;0.20;0.20;;;;;;;4.36;100.00;100561.50;4984245;28;20816;-50
2020/12/25 06:25:51;;;;;;;0.20;0.20;;;;;;;4.39;100.00;100566.78;4989563;28;20496;-49
2020/12/25 06:28:19;;;;;;;0.20;0.10;;;;;;;4.51;100.00;100568.53;4988024;28;21001;-49
2020/12/25 06:30:45;;;;;;;0.20;0.10;;;;;;;4.41;100.00;100583.44;4990422;28;20450;-49
2020/12/25 06:33:11;;;;;;;0.20;0.20;;;;;;;4.35;100.00;100579.03;4988352;28;20445;-50
2020/12/25 06:35:40;;;;;;;0.20;0.20;;;;;;;4.40;100.00;100581.69;4982176;28;20453;-50
2020/12/25 06:38:11;;;;;;;0.20;0.10;;;;;;;4.51;100.00;100586.94;4983622;28;20454;-49
2020/12/25 06:40:38;;;;;;;0.20;0.20;;;;;;;4.38;100.00;100593.94;4982485;28;20441;-49
2020/12/25 06:43:15;;;;;;;0.20;0.10;;;;;;;4.39;100.00;100590.47;4982597;28;20461;-49
2020/12/25 06:45:44;;;;;;;0.20;0.10;;;;;;;4.34;100.00;100597.47;4995359;28;20592;-49
2020/12/25 06:48:16;;;;;;;0.20;0.10;;;;;;;4.38;100.00;100602.72;4982072;28;20843;-51
2020/12/25 06:50:45;;;;;;;0.30;0.20;;;;;;;4.35;100.00;100607.09;4985602;28;20450;-50
2020/12/25 06:53:31;;;;;;;0.20;0.10;;;;;;;4.35;100.00;100605.34;5020169;23;20914;-49
2020/12/25 06:56:21;;;;;;;0.20;0.10;;;;;;;4.38;100.00;100597.44;5028286;28;20444;-49
2020/12/25 06:58:53;;;;;;;0.20;0.10;;;;;;;4.32;100.00;100602.72;5034732;28;20447;-49
2020/12/25 07:01:40;;;;;;;0.20;0.10;;;;;;;4.33;100.00;100617.63;5035009;28;20444;-49
2020/12/25 07:04:06;;;;;;;0.20;0.10;;;;;;;4.42;100.00;100612.41;5012222;28;21036;-49
2020/12/25 07:06:32;;;;;;;0.20;0.10;;;;;;;4.30;100.00;100615.00;5028222;28;20487;-49
2020/12/25 07:09:11;;;;;;;0.20;0.20;;;;;;;4.35;100.00;100621.13;5027984;28;20444;-49
2020/12/25 07:11:38;;;;;;;0.20;0.10;;;;;;;4.31;100.00;100619.38;5026967;28;20492;-49
2020/12/25 07:14:05;;;;;;;0.30;0.20;;;;;;;4.25;100.00;100626.38;5026358;28;20474;-50
2020/12/25 07:16:31;;;;;;;0.20;0.10;;;;;;;4.31;100.00;100619.38;5015031;28;20441;-50
2020/12/25 07:18:57;;;;;;;0.20;0.20;;;;;;;4.33;100.00;100628.16;5028084;28;20455;-50
2020/12/25 07:21:23;;;;;;;0.20;0.13;;;;;;;4.25;100.00;100624.66;5023027;28;20455;-50
2020/12/25 07:23:50;;;;;;;0.20;0.10;;;;;;;4.29;100.00;100634.28;5020757;28;20479;-50
2020/12/25 07:26:17;;;;;;;0.20;0.10;;;;;;;4.24;100.00;100641.28;5026444;28;20449;-50
2020/12/25 07:28:45;;;;;;;0.30;0.13;;;;;;;4.25;100.00;100642.16;5027977;28;20458;-50
2020/12/25 07:31:11;;;;;;;0.20;0.10;;;;;;;4.24;100.00;100643.03;5022766;28;20488;-50
2020/12/25 07:33:38;;;;;;;0.30;0.20;;;;;;;4.31;100.00;100643.06;5020757;28;20480;-50
2020/12/25 07:36:11;;;;;;;0.20;0.20;;;;;;;4.32;100.00;100650.09;5025721;28;20448;-50
2020/12/25 07:38:38;;;;;;;0.20;0.20;;;;;;;4.17;100.00;100652.69;5027564;28;20452;-50
2020/12/25 07:41:04;;;;;;;0.30;0.10;;;;;;;4.17;100.00;100660.56;5024149;28;20936;-50
2020/12/25 07:43:31;;;;;;;0.20;0.20;;;;;;;4.26;100.00;100665.00;5020708;28;20483;-49
2020/12/25 07:45:57;;;;;;;0.20;0.20;;;;;;;4.42;100.00;100667.66;5007962;28;20467;-51
2020/12/25 07:48:23;;;;;;;0.20;0.20;;;;;;;4.37;100.00;100664.13;5025618;28;20794;-51
2020/12/25 07:50:50;;;;;;;0.23;0.20;;;;;;;4.36;100.00;100678.16;5024025;28;20441;-52
2020/12/25 07:53:17;;;;;;;0.20;0.10;;;;;;;4.39;100.00;100677.31;5025628;28;20476;-52
2020/12/25 07:55:47;;;;;;;0.30;0.20;;;;;;;4.39;100.00;100680.81;5024212;28;20462;-50
2020/12/25 07:58:18;;;;;;;0.20;0.17;;;;;;;4.28;100.00;100682.53;5006262;28;20443;-49
2020/12/25 08:00:45;;;;;;;0.20;0.10;;;;;;;4.42;100.00;100679.94;5021527;28;20456;-50
2020/12/25 08:03:13;;;;;;;0.20;0.10;;;;;;;4.16;100.00;100679.84;5025187;28;20469;-50
2020/12/25 08:05:40;;;;;;;0.20;0.20;;;;;;;4.24;100.00;100688.63;5006783;28;20456;-50
2020/12/25 08:08:07;;;;;;;0.30;0.10;;;;;;;4.20;100.00;100702.66;5027388;28;20531;-50
2020/12/25 08:10:35;;;;;;;0.20;0.10;;;;;;;4.27;98.30;100707.09;5026477;28;20455;-50
2020/12/25 08:13:05;;;;;;;0.20;0.10;;;;;;;4.11;100.00;100713.13;5019849;28;20877;-50
2020/12/25 08:15:33;;;;;;;0.20;0.10;;;;;;;4.21;100.00;100717.56;5020681;28;20507;-50
2020/12/25 08:18:01;;;;;;;0.30;0.10;;;;;;;4.23;99.99;100717.56;5008159;28;20595;-50
2020/12/25 08:20:28;;;;;;;0.20;0.20;;;;;;;4.21;99.89;100721.97;5019974;28;20458;-50
2020/12/25 08:23:01;;;;;;;0.20;0.13;;;;;;;4.05;98.33;100727.16;5026224;28;20487;-51
2020/12/25 08:25:29;;;;;;;0.20;0.13;;;;;;;4.15;98.94;100735.97;5027541;28;20440;-49
2020/12/25 08:27:57;;;;;;;0.20;0.20;;;;;;;4.07;99.72;100737.69;5023669;28;20824;-52
2020/12/25 08:30:24;;;;;;;0.20;0.10;;;;;;;4.02;98.95;100744.66;5025886;28;20448;-52
2020/12/25 08:32:55;;;;;;;0.23;0.13;;;;;;;4.13;97.59;100742.97;5023278;28;20498;-51
2020/12/25 08:35:27;;;;;;;0.20;0.10;;;;;;;4.21;97.90;100757.03;5035241;28;20456;-52
2020/12/25 08:38:02;;;;;;;0.20;0.10;;;;;;;4.09;97.87;100764.84;5040217;28;20445;-52
2020/12/25 08:40:32;;;;;;;0.20;0.10;;;;;;;4.05;96.21;100763.09;5042386;28;20440;-51
2020/12/25 08:43:10;;;;;;;0.20;0.10;;;;;;;4.05;96.02;100770.97;5027643;28;20575;-52
2020/12/25 08:45:54;;;;;;;0.20;0.20;;;;;;;3.83;95.76;100768.22;5028653;28;20449;-51
2020/12/25 08:48:21;;;;;;;0.23;0.20;;;;;;;3.94;95.14;100768.28;5027892;28;20460;-52
2020/12/25 08:50:48;;;;;;;0.20;0.10;;;;;;;3.74;96.20;100757.66;5023673;28;20867;-51
2020/12/25 08:53:21;;;;;;;0.20;0.10;;;;;;;3.72;96.57;100771.66;5019085;28;20490;-50
2020/12/25 08:55:54;;;;;;;0.20;0.20;;;;;;;3.74;97.01;100768.16;5022047;28;20460;-49
2020/12/25 08:58:24;;;;;;;0.20;0.20;;;;;;;3.84;97.06;100774.38;5019458;28;20455;-50
2020/12/25 09:00:58;;;;;;;0.30;0.10;;;;;;;3.79;96.88;100762.94;5022493;28;20452;-50
2020/12/25 09:03:24;;;;;;;0.20;0.10;;;;;;;3.85;95.91;100771.75;5016531;28;20898;-50
2020/12/25 09:05:50;;;;;;;0.20;0.10;;;;;;;3.71;95.75;100778.69;5026594;28;20452;-50
2020/12/25 09:08:16;;;;;;;0.20;0.10;;;;;;;3.88;95.16;100786.66;5020934;28;20463;-50
2020/12/25 09:10:42;;;;;;;0.20;0.10;;;;;;;3.87;96.37;100779.66;5018259;28;20511;-50
2020/12/25 09:13:09;;;;;;;0.30;0.10;;;;;;;3.95;95.76;100787.56;5024512;28;20492;-50
2020/12/25 09:15:35;;;;;;;0.20;0.20;;;;;;;3.91;95.56;100786.69;5022517;28;20452;-51
2020/12/25 09:18:01;;;;;;;0.20;0.20;;;;;;;3.91;95.76;100781.41;5020012;28;20459;-50
2020/12/25 09:20:27;;;;;;;0.20;0.10;;;;;;;4.04;95.74;100782.38;5019694;28;20437;-50
2020/12/25 09:22:54;;;;;;;0.20;0.20;;;;;;;4.06;95.41;100786.78;5025574;28;20464;-50
2020/12/25 09:25:20;;;;;;;0.20;0.20;;;;;;;4.08;95.50;100792.03;5026195;28;20447;-50
2020/12/25 09:27:46;;;;;;;0.20;0.10;;;;;;;4.15;96.04;100793.84;5020488;28;20448;-50
2020/12/25 09:30:13;;;;;;;0.20;0.10;;;;;;;4.07;95.56;100803.44;5019431;28;20452;-50
2020/12/25 09:32:39;;;;;;;0.20;0.10;;;;;;;4.26;96.23;100792.16;5025178;28;20496;-50
2020/12/25 09:35:05;;;;;;;0.20;0.10;;;;;;;4.18;95.20;100807.00;5025709;28;20518;-50
2020/12/25 09:37:31;;;;;;;0.20;0.10;;;;;;;4.30;95.75;100806.19;5020564;28;20444;-50
2020/12/25 09:39:57;;;;;;;0.20;0.10;;;;;;;4.31;95.50;100815.84;5019526;28;20448;-50
2020/12/25 09:42:23;;;;;;;0.20;0.10;;;;;;;4.35;95.04;100809.72;5024903;28;20441;-50
2020/12/25 09:44:50;;;;;;;0.20;0.20;;;;;;;4.10;94.89;100806.94;5025960;28;20452;-50
2020/12/25 09:47:19;;;;;;;0.20;0.10;;;;;;;4.21;95.53;100814.03;5020456;28;20999;-50
2020/12/25 09:49:47;;;;;;;0.20;0.20;;;;;;;4.18;95.28;100821.91;5019312;28;20514;-50
2020/12/25 09:52:13;;;;;;;0.20;0.10;;;;;;;4.31;95.27;100819.38;5024129;28;20535;-50
2020/12/25 09:54:39;;;;;;;0.20;0.10;;;;;;;4.31;95.01;100819.38;5025382;28;20467;-50
2020/12/25 09:57:05;;;;;;;0.20;0.10;;;;;;;4.27;95.22;100812.34;5012835;28;20451;-50
2020/12/25 09:59:31;;;;;;;0.20;0.20;;;;;;;4.19;95.79;100813.16;5027837;28;20458;-50
2020/12/25 10:01:57;;;;;;;0.20;0.10;;;;;;;4.27;95.09;100804.44;5021504;28;20456;-50
2020/12/25 10:04:23;;;;;;;0.20;0.10;;;;;;;4.33;94.83;100814.09;5019073;28;20997;-50
2020/12/25 10:06:49;;;;;;;0.20;0.10;;;;;;;4.31;95.14;100808.84;5023806;28;20471;-50
2020/12/25 10:09:16;;;;;;;0.20;0.10;;;;;;;4.34;94.59;100824.63;5026080;28;20448;-50
2020/12/25 10:11:42;;;;;;;0.20;0.10;;;;;;;4.14;94.03;100831.56;5022002;28;21037;-50
2020/12/25 10:14:08;;;;;;;0.20;0.10;;;;;;;4.16;93.84;100835.06;5019154;28;20468;-50
2020/12/25 10:16:34;;;;;;;0.30;0.20;;;;;;;4.26;93.97;100830.75;5020095;28;20468;-50
2020/12/25 10:19:01;;;;;;;0.20;0.20;;;;;;;4.37;92.38;100832.53;5026077;28;20447;-50
2020/12/25 10:21:27;;;;;;;0.20;0.10;;;;;;;4.28;91.54;100835.13;5023174;28;20440;-49
2020/12/25 10:23:53;;;;;;;0.20;0.10;;;;;;;4.34;92.87;100829.91;5019502;28;20472;-49
2020/12/25 10:26:19;;;;;;;0.20;0.13;;;;;;;4.42;92.88;100832.59;5028291;28;20455;-49
2020/12/25 10:28:45;;;;;;;0.20;0.10;;;;;;;4.35;91.07;100836.03;5031068;28;20458;-49
2020/12/25 10:31:12;;;;;;;0.20;0.10;;;;;;;4.27;91.44;100838.66;5026462;28;20470;-50
2020/12/25 10:33:38;;;;;;;0.20;0.20;;;;;;;4.40;91.93;100844.84;5029458;28;20471;-49
2020/12/25 10:36:05;;;;;;;0.30;0.20;;;;;;;4.47;91.04;100852.78;5030281;28;20457;-49
2020/12/25 10:38:32;;;;;;;0.20;0.20;;;;;;;4.44;90.33;100844.88;5030073;28;20448;-49
2020/12/25 10:40:58;;;;;;;0.20;0.10;;;;;;;4.39;89.73;100853.63;5026271;28;20841;-59
2020/12/25 10:43:24;;;;;;;0.20;0.10;;;;;;;4.40;91.31;100845.75;5006589;28;20476;-50
2020/12/25 10:45:50;;;;;;;0.20;0.10;;;;;;;4.47;92.26;100851.91;5017465;28;20503;-50
2020/12/25 10:48:16;;;;;;;0.20;0.10;;;;;;;4.41;92.68;100849.25;5025132;28;20455;-50
2020/12/25 10:50:42;;;;;;;0.20;0.10;;;;;;;4.51;94.00;100845.78;5024627;28;20822;-50
2020/12/25 10:53:09;;;;;;;0.20;0.10;;;;;;;4.77;93.16;100848.53;5022003;28;20492;-50
2020/12/25 10:55:36;;;;;;;0.20;0.10;;;;;;;4.62;91.93;100844.06;5026632;28;20453;-50
2020/12/25 10:58:02;;;;;;;0.20;0.20;;;;;;;4.67;92.02;100842.38;5018294;28;20458;-50
2020/12/25 11:00:28;;;;;;;0.20;0.20;;;;;;;4.62;89.45;100846.72;5035044;28;20479;-50
2020/12/25 11:02:55;;;;;;;0.20;0.10;;;;;;;4.73;89.98;100841.50;5018749;28;20475;-51
2020/12/25 11:05:21;;;;;;;0.30;0.10;;;;;;;4.63;89.49;100845.84;5015640;28;20834;-51
2020/12/25 11:07:47;;;;;;;0.20;0.10;;;;;;;4.53;90.44;100853.69;5021138;28;20451;-50
2020/12/25 11:10:13;;;;;;;0.20;0.10;;;;;;;4.61;89.79;100841.44;5026134;28;20449;-50
2020/12/25 11:12:39;;;;;;;0.20;0.10;;;;;;;4.66;89.60;100843.25;5029999;28;20516;-49
2020/12/25 11:15:05;;;;;;;0.20;0.20;;;;;;;4.56;88.67;100844.06;5025560;28;20449;-51
2020/12/25 11:17:32;;;;;;;0.20;0.10;;;;;;;4.43;88.61;100850.13;5015269;28;20950;-49
2020/12/25 11:19:58;;;;;;;0.20;0.10;;;;;;;4.55;89.37;100857.22;5024437;28;20470;-49
2020/12/25 11:22:27;;;;;;;0.20;0.20;;;;;;;4.50;89.22;100846.66;5020926;28;20799;-50
2020/12/25 11:24:53;;;;;;;0.20;0.13;;;;;;;4.61;88.03;100844.06;5025234;28;20452;-48
2020/12/25 11:27:20;;;;;;;0.20;0.10;;;;;;;4.83;87.59;100851.19;5028409;28;20452;-50
2020/12/25 11:29:46;;;;;;;0.20;0.10;;;;;;;4.78;87.47;100834.47;5026520;28;20448;-48